Terminal Aerodrome Forecast
Issued by NWS Charleston, WV

Current Version | Previous Version | Text Only | Print | Product List | Glossary Off
Versions: 1 2 3 4 5 6 7 8 9 10 11 12 13 14 15 16 17 18 19 20 21 22 23 24 25 26 27 28

000
FTUS41 KRLX 221509 AAB
TAFEKN
TAF AMD
KEKN 221509Z 2215/2312 13005KT P6SM OVC060
     FM221900 13008KT P6SM -SHRA OVC045
     FM230400 12008KT 5SM -SHRA BR OVC035
     FM230800 10007KT 3SM -SHRA BR OVC015=

USA.gov is the U.S. government's official web portal to all federal, state and local government web resources and services.